createdAt,value
2022-08-21T00:00:24.429Z,2.30
2022-08-21T00:02:59.062Z,2.50
2022-08-21T00:05:27.201Z,2.83
2022-08-21T00:07:53.953Z,2.50
2022-08-21T00:10:20.729Z,2.70
2022-08-21T00:12:47.583Z,2.20
2022-08-21T00:15:17.972Z,2.80
2022-08-21T00:20:15.207Z,2.85
2022-08-21T00:22:42.634Z,2.60
2022-08-21T00:25:10.675Z,3.08
2022-08-21T00:27:37.232Z,2.70
2022-08-21T00:30:07.101Z,2.53
2022-08-21T00:32:36.718Z,2.80
2022-08-21T00:35:05.100Z,2.90
2022-08-21T00:37:31.727Z,2.65
2022-08-21T00:40:28.822Z,2.80
2022-08-21T00:43:17.975Z,2.95
2022-08-21T00:46:06.406Z,3.35
2022-08-21T00:48:53.293Z,2.88
2022-08-21T00:51:59.005Z,3.08
2022-08-21T00:54:47.676Z,3.20
2022-08-21T00:57:20.674Z,3.72
2022-08-21T00:59:52.348Z,2.72
2022-08-21T01:02:20.938Z,2.75
2022-08-21T01:04:48.493Z,3.03
2022-08-21T01:07:15.353Z,3.03
2022-08-21T01:09:42.620Z,3.30
2022-08-21T01:12:10.712Z,3.17
2022-08-21T01:14:37.248Z,3.70
2022-08-21T01:17:04.801Z,3.50
2022-08-21T01:19:32.043Z,3.53
2022-08-21T01:22:00.529Z,2.65
2022-08-21T01:24:27.521Z,3.63
2022-08-21T01:26:54.802Z,3.70
2022-08-21T01:29:43.462Z,3.22
2022-08-21T01:32:14.379Z,3.60
2022-08-21T01:34:44.424Z,3.50
2022-08-21T01:37:12.158Z,3.00
2022-08-21T01:39:39.017Z,3.65
2022-08-21T01:42:06.552Z,3.25
2022-08-21T01:44:35.105Z,3.05
2022-08-21T01:47:04.460Z,3.70
2022-08-21T01:49:30.948Z,3.40
2022-08-21T01:52:00.615Z,4.40
2022-08-21T01:54:27.815Z,3.85
2022-08-21T01:56:55.281Z,3.28
2022-08-21T01:59:23.968Z,3.75
2022-08-21T02:01:51.273Z,3.60
2022-08-21T02:04:18.237Z,4.30
2022-08-21T02:06:44.928Z,4.00
2022-08-21T02:09:12.116Z,4.07
2022-08-21T02:11:42.041Z,3.97
2022-08-21T02:14:10.131Z,4.22
2022-08-21T02:16:36.982Z,4.00
2022-08-21T02:19:04.402Z,4.13
2022-08-21T02:21:31.165Z,4.43
2022-08-21T02:23:57.648Z,4.30
2022-08-21T02:26:24.238Z,4.38
2022-08-21T02:28:50.712Z,4.30
2022-08-21T02:31:17.246Z,3.85
2022-08-21T02:33:43.797Z,4.28
2022-08-21T02:36:11.548Z,4.50
2022-08-21T02:38:39.833Z,4.60
2022-08-21T02:41:08.976Z,4.10
2022-08-21T02:43:36.802Z,5.18
2022-08-21T02:46:05.487Z,4.43
2022-08-21T02:48:33.806Z,4.47
2022-08-21T02:51:03.998Z,4.40
2022-08-21T02:53:31.779Z,4.65
2022-08-21T02:56:01.315Z,4.10
2022-08-21T02:58:32.409Z,4.53
2022-08-21T03:00:59.280Z,4.80
2022-08-21T03:03:28.474Z,4.75
2022-08-21T03:05:55.513Z,4.38
2022-08-21T03:08:24.262Z,4.72
2022-08-21T03:10:54.774Z,5.32
2022-08-21T03:13:22.319Z,4.40
2022-08-21T03:15:50.117Z,5.03
2022-08-21T03:18:17.123Z,4.05
2022-08-21T03:20:45.949Z,4.78
2022-08-21T03:23:16.836Z,4.82
2022-08-21T03:25:47.382Z,5.15
2022-08-21T03:28:22.516Z,5.00
2022-08-21T03:30:51.413Z,4.93
2022-08-21T03:33:20.540Z,4.63
2022-08-21T03:36:01.436Z,5.03
2022-08-21T03:38:29.812Z,5.07
2022-08-21T03:40:56.346Z,4.68
2022-08-21T03:43:22.983Z,4.90
2022-08-21T03:45:49.689Z,4.90
2022-08-21T03:48:19.884Z,4.63
2022-08-21T03:50:50.594Z,4.53
2022-08-21T03:53:18.079Z,5.05
2022-08-21T03:55:47.283Z,4.90
2022-08-21T03:58:17.360Z,5.05
2022-08-21T04:03:11.960Z,4.75
2022-08-21T04:05:38.442Z,4.70
2022-08-21T04:08:06.332Z,4.53
2022-08-21T04:10:36.347Z,5.13
2022-08-21T04:13:03.713Z,5.28
2022-08-21T04:15:30.361Z,4.75
2022-08-21T04:17:56.986Z,5.00
2022-08-21T04:20:24.417Z,4.70
2022-08-21T04:22:51.960Z,5.88
2022-08-21T04:25:23.233Z,5.28
2022-08-21T04:27:50.163Z,5.15
2022-08-21T04:30:17.095Z,4.95
2022-08-21T04:32:49.758Z,5.20
2022-08-21T04:35:22.946Z,4.50
2022-08-21T04:37:49.954Z,4.47
2022-08-21T04:40:18.422Z,5.20
2022-08-21T04:42:52.504Z,5.00
2022-08-21T04:45:25.111Z,4.93
2022-08-21T04:47:54.528Z,4.78
2022-08-21T04:50:25.372Z,5.07
2022-08-21T04:53:05.973Z,4.95
2022-08-21T04:55:32.618Z,4.65
2022-08-21T04:58:00.344Z,4.90
2022-08-21T05:00:27.160Z,5.35
2022-08-21T05:02:57.801Z,4.93
2022-08-21T05:05:25.421Z,4.75
2022-08-21T05:07:54.043Z,4.85
2022-08-21T05:10:20.747Z,5.15
2022-08-21T05:12:47.478Z,4.68
2022-08-21T05:15:14.524Z,5.25
2022-08-21T05:17:42.333Z,4.45
2022-08-21T05:20:11.074Z,4.00
2022-08-21T05:22:38.097Z,4.90
2022-08-21T05:25:10.418Z,4.78
2022-08-21T05:27:39.264Z,4.60
2022-08-21T05:30:10.372Z,4.55
2022-08-21T05:32:37.112Z,4.38
2022-08-21T05:35:08.041Z,4.80
2022-08-21T05:37:35.405Z,5.15
2022-08-21T05:40:21.037Z,4.63
2022-08-21T05:42:54.221Z,4.63
2022-08-21T05:45:43.316Z,4.75
2022-08-21T05:48:17.837Z,4.38
2022-08-21T05:50:45.937Z,4.28
2022-08-21T05:53:14.847Z,5.45
2022-08-21T05:55:45.675Z,4.43
2022-08-21T05:58:18.364Z,4.57
2022-08-21T06:00:48.493Z,4.47
2022-08-21T06:03:22.216Z,4.35
2022-08-21T06:05:49.342Z,4.72
2022-08-21T06:08:18.108Z,4.30
2022-08-21T06:10:45.956Z,4.10
2022-08-21T06:13:13.457Z,3.88
2022-08-21T06:15:40.273Z,4.32
2022-08-21T06:18:07.390Z,4.43
2022-08-21T06:20:34.114Z,4.38
2022-08-21T06:23:01.508Z,3.92
2022-08-21T06:25:28.591Z,4.78
2022-08-21T06:28:02.356Z,4.40
2022-08-21T06:30:28.884Z,4.50
2022-08-21T06:32:55.693Z,4.57
2022-08-21T06:35:22.311Z,4.13
2022-08-21T06:37:48.876Z,4.20
2022-08-21T06:40:16.373Z,4.53
2022-08-21T06:42:45.071Z,4.05
2022-08-21T06:45:14.163Z,3.80
2022-08-21T06:47:40.777Z,4.55
2022-08-21T06:50:08.575Z,4.53
2022-08-21T06:52:38.736Z,5.15
2022-08-21T06:55:07.868Z,4.65
2022-08-21T06:57:34.550Z,3.80
2022-08-21T07:00:01.060Z,4.40
2022-08-21T07:02:28.075Z,3.95
2022-08-21T07:04:54.524Z,4.00
2022-08-21T07:07:21.048Z,3.65
2022-08-21T07:09:47.600Z,4.53
2022-08-21T07:12:14.236Z,3.70
2022-08-21T07:14:40.803Z,4.07
2022-08-21T07:17:07.266Z,4.43
2022-08-21T07:19:33.898Z,4.25
2022-08-21T07:22:02.728Z,4.07
2022-08-21T07:24:30.107Z,4.53
2022-08-21T07:26:56.851Z,3.85
2022-08-21T07:29:23.360Z,4.07
2022-08-21T07:31:49.821Z,3.80
2022-08-21T07:34:17.257Z,3.80
2022-08-21T07:36:43.780Z,4.05
2022-08-21T07:39:10.450Z,4.03
2022-08-21T07:41:37.181Z,4.10
2022-08-21T07:44:04.054Z,4.20
2022-08-21T07:46:33.562Z,4.07
2022-08-21T07:49:00.081Z,3.85
2022-08-21T07:51:29.313Z,3.90
2022-08-21T07:53:57.437Z,3.67
2022-08-21T07:56:24.413Z,4.13
2022-08-21T07:58:50.953Z,4.43
2022-08-21T08:01:18.407Z,4.88
2022-08-21T08:03:46.027Z,3.95
2022-08-21T08:06:17.558Z,4.20
2022-08-21T08:08:44.122Z,4.57
2022-08-21T08:11:11.731Z,4.38
2022-08-21T08:13:44.519Z,5.03
2022-08-21T08:16:11.441Z,4.70
2022-08-21T08:18:38.449Z,4.60
2022-08-21T08:21:06.318Z,4.70
2022-08-21T08:23:33.542Z,4.25
2022-08-21T08:26:00.813Z,4.93
2022-08-21T08:28:28.081Z,4.45
2022-08-21T08:30:54.573Z,4.40
2022-08-21T08:33:21.178Z,4.03
2022-08-21T08:35:49.876Z,4.25
2022-08-21T08:38:21.331Z,3.90
2022-08-21T08:41:00.993Z,3.92
2022-08-21T08:43:33.529Z,4.20
2022-08-21T08:46:05.253Z,4.47
2022-08-21T08:48:39.988Z,4.00
2022-08-21T08:51:14.198Z,3.40
2022-08-21T08:53:55.352Z,3.83
2022-08-21T08:56:28.861Z,4.20
2022-08-21T08:59:01.379Z,4.10
2022-08-21T09:01:29.193Z,3.97
2022-08-21T09:03:58.684Z,4.10
2022-08-21T09:06:41.832Z,4.35
2022-08-21T09:09:26.280Z,4.18
2022-08-21T09:12:09.591Z,4.63
2022-08-21T09:14:55.782Z,4.47
2022-08-21T09:17:40.511Z,4.22
2022-08-21T09:20:10.987Z,4.40
2022-08-21T09:22:51.093Z,3.83
2022-08-21T09:27:53.699Z,4.43
2022-08-21T09:30:27.179Z,3.83
2022-08-21T09:32:53.714Z,4.15
2022-08-21T09:35:23.436Z,3.80
2022-08-21T09:37:58.944Z,3.92
2022-08-21T09:40:44.400Z,3.90
2022-08-21T09:43:21.418Z,3.55
2022-08-21T09:45:50.100Z,2.83
2022-08-21T09:48:21.631Z,3.15
2022-08-21T09:50:50.239Z,4.00
2022-08-21T09:53:35.688Z,3.25
2022-08-21T09:56:35.543Z,3.75
2022-08-21T09:59:02.261Z,3.47
2022-08-21T10:01:28.945Z,3.00
2022-08-21T10:04:23.387Z,3.00
2022-08-21T10:06:50.055Z,3.58
2022-08-21T10:09:21.837Z,3.13
2022-08-21T10:12:16.896Z,3.53
2022-08-21T10:14:49.633Z,2.80
2022-08-21T10:17:32.802Z,3.25
2022-08-21T10:20:06.953Z,2.78
2022-08-21T10:22:56.287Z,2.85
2022-08-21T10:25:38.088Z,3.42
2022-08-21T10:28:32.179Z,3.05
2022-08-21T10:31:36.176Z,3.15
2022-08-21T10:34:41.948Z,3.10
2022-08-21T10:37:41.726Z,3.30
2022-08-21T10:40:27.188Z,3.08
2022-08-21T10:43:09.838Z,2.88
2022-08-21T10:45:55.923Z,3.03
2022-08-21T10:48:51.926Z,2.97
2022-08-21T10:51:40.361Z,3.15
2022-08-21T10:54:47.644Z,3.15
2022-08-21T10:57:32.374Z,2.80
2022-08-21T11:00:12.078Z,3.10
2022-08-21T11:02:51.978Z,2.70
2022-08-21T11:07:55.445Z,2.70
2022-08-21T11:10:28.694Z,2.88
2022-08-21T11:13:09.863Z,3.13
2022-08-21T11:15:51.401Z,2.90
2022-08-21T11:18:41.705Z,2.80
2022-08-21T11:21:27.515Z,2.92
2022-08-21T11:24:04.675Z,3.22
2022-08-21T11:27:03.568Z,2.83
2022-08-21T11:29:34.328Z,2.80
2022-08-21T11:32:28.856Z,2.80
2022-08-21T11:35:14.178Z,3.15
2022-08-21T11:37:49.702Z,2.67
2022-08-21T11:40:35.173Z,2.60
2022-08-21T11:43:37.541Z,2.38
2022-08-21T11:46:43.648Z,2.75
2022-08-21T11:49:38.360Z,2.70
2022-08-21T11:52:37.086Z,2.03
2022-08-21T11:55:29.464Z,2.45
2022-08-21T11:58:06.652Z,2.20
2022-08-21T12:00:42.059Z,2.50
2022-08-21T12:03:14.365Z,2.47
2022-08-21T12:05:45.265Z,2.00
2022-08-21T12:08:28.707Z,1.83
2022-08-21T12:11:18.959Z,1.88
2022-08-21T12:13:58.028Z,2.33
2022-08-21T12:16:37.170Z,1.98
2022-08-21T12:19:35.785Z,2.05
2022-08-21T12:22:02.496Z,2.28
2022-08-21T12:24:28.904Z,2.55
2022-08-21T12:27:01.024Z,2.25
2022-08-21T12:29:37.259Z,2.00
2022-08-21T12:32:11.148Z,2.13
2022-08-21T12:35:23.219Z,2.47
2022-08-21T12:38:07.341Z,2.05
2022-08-21T12:40:44.028Z,2.20
2022-08-21T12:43:33.977Z,2.10
2022-08-21T12:46:01.666Z,2.22
2022-08-21T12:48:34.446Z,2.00
2022-08-21T12:51:17.716Z,2.00
2022-08-21T12:53:51.832Z,2.40
2022-08-21T12:56:21.589Z,2.30
2022-08-21T13:01:26.306Z,2.60
2022-08-21T13:04:04.503Z,2.35
2022-08-21T13:06:38.357Z,2.40
2022-08-21T13:09:08.400Z,1.98
2022-08-21T13:11:35.566Z,2.33
2022-08-21T13:14:05.810Z,2.50
2022-08-21T13:16:32.917Z,2.33
2022-08-21T13:19:06.415Z,2.20
2022-08-21T13:21:44.812Z,2.25
2022-08-21T13:24:41.411Z,2.30
2022-08-21T13:27:18.845Z,2.30
2022-08-21T13:29:48.458Z,2.50
2022-08-21T13:32:26.695Z,2.35
2022-08-21T13:34:54.438Z,2.75
2022-08-21T13:37:23.826Z,2.25
2022-08-21T13:39:53.049Z,2.22
2022-08-21T13:42:20.427Z,2.10
2022-08-21T13:44:48.778Z,2.45
2022-08-21T13:47:17.526Z,2.60
2022-08-21T13:49:47.817Z,2.10
2022-08-21T13:52:27.197Z,1.90
2022-08-21T13:55:14.393Z,2.42
2022-08-21T13:57:41.006Z,2.38
2022-08-21T14:00:27.188Z,2.30
2022-08-21T14:03:00.548Z,2.30
2022-08-21T14:05:32.998Z,2.63
2022-08-21T14:08:13.167Z,2.20
2022-08-21T14:10:53.714Z,2.20
2022-08-21T14:13:47.640Z,2.20
2022-08-21T14:16:26.927Z,2.42
2022-08-21T14:19:19.913Z,2.22
2022-08-21T14:21:47.039Z,2.38
2022-08-21T14:24:25.552Z,2.38
2022-08-21T14:27:07.400Z,2.63
2022-08-21T14:29:37.835Z,2.33
2022-08-21T14:32:25.238Z,2.30
2022-08-21T14:34:54.607Z,2.47
2022-08-21T14:37:22.010Z,2.50
2022-08-21T14:39:48.511Z,2.05
2022-08-21T14:42:15.019Z,2.70
2022-08-21T14:44:42.181Z,2.40
2022-08-21T14:47:09.983Z,2.60
2022-08-21T14:49:36.754Z,2.78
2022-08-21T14:52:03.598Z,2.22
2022-08-21T14:54:32.499Z,2.28
2022-08-21T14:57:11.431Z,2.47
2022-08-21T14:59:38.698Z,2.63
2022-08-21T15:02:07.830Z,2.60
2022-08-21T15:04:35.144Z,2.38
2022-08-21T15:07:01.907Z,2.10
2022-08-21T15:09:28.637Z,1.75
2022-08-21T15:11:58.212Z,2.13
2022-08-21T15:14:27.642Z,2.30
2022-08-21T15:19:20.982Z,2.40
2022-08-21T15:21:47.726Z,2.00
2022-08-21T15:24:14.233Z,2.20
2022-08-21T15:26:41.111Z,2.47
2022-08-21T15:29:09.141Z,2.30
2022-08-21T15:31:36.680Z,2.10
2022-08-21T15:34:03.695Z,2.33
2022-08-21T15:36:30.171Z,2.33
2022-08-21T15:38:56.688Z,2.03
2022-08-21T15:41:23.205Z,2.33
2022-08-21T15:43:52.525Z,2.22
2022-08-21T15:48:47.224Z,2.25
2022-08-21T15:51:15.392Z,2.22
2022-08-21T15:53:42.859Z,2.22
2022-08-21T15:56:22.668Z,2.03
2022-08-21T15:58:51.180Z,2.17
2022-08-21T16:01:18.155Z,1.92
2022-08-21T16:03:49.733Z,2.17
2022-08-21T16:06:16.312Z,2.03
2022-08-21T16:08:42.783Z,2.17
2022-08-21T16:11:09.350Z,2.22
2022-08-21T16:13:44.916Z,2.17
2022-08-21T16:16:13.335Z,2.20
2022-08-21T16:18:40.728Z,2.37
2022-08-21T16:21:07.898Z,2.28
2022-08-21T16:23:35.738Z,2.10
2022-08-21T16:26:06.827Z,2.20
2022-08-21T16:28:39.170Z,3.35
2022-08-21T16:31:05.758Z,12.98
2022-08-21T16:33:38.840Z,2.13
2022-08-21T16:36:08.887Z,3.10
2022-08-21T16:38:38.074Z,2.80
2022-08-21T16:43:36.511Z,2.60
2022-08-21T16:46:03.019Z,1.88
2022-08-21T16:48:29.756Z,2.10
2022-08-21T16:50:57.508Z,2.60
2022-08-21T16:53:25.664Z,1.98
2022-08-21T16:55:52.757Z,2.40
2022-08-21T16:58:27.095Z,2.20
2022-08-21T17:00:54.482Z,2.00
2022-08-21T17:03:33.877Z,1.92
2022-08-21T17:06:01.449Z,2.08
2022-08-21T17:08:28.108Z,1.77
2022-08-21T17:10:55.648Z,2.00
2022-08-21T17:13:22.491Z,2.50
2022-08-21T17:15:49.005Z,2.13
2022-08-21T17:18:18.492Z,1.90
2022-08-21T17:20:45.875Z,2.15
2022-08-21T17:23:12.394Z,2.00
2022-08-21T17:25:43.646Z,2.00
2022-08-21T17:28:16.121Z,2.15
2022-08-21T17:30:46.036Z,2.50
2022-08-21T17:33:15.236Z,2.30
2022-08-21T17:35:43.541Z,2.20
2022-08-21T17:38:11.144Z,2.30
2022-08-21T17:40:41.851Z,2.10
2022-08-21T17:43:12.995Z,1.98
2022-08-21T17:45:40.097Z,2.40
2022-08-21T17:48:06.592Z,2.30
2022-08-21T17:50:33.306Z,2.75
2022-08-21T17:53:00.238Z,2.33
2022-08-21T17:55:28.274Z,2.38
2022-08-21T17:57:56.536Z,2.10
2022-08-21T18:00:25.167Z,2.53
2022-08-21T18:03:02.983Z,2.25
2022-08-21T18:05:29.724Z,2.55
2022-08-21T18:07:56.652Z,1.95
2022-08-21T18:10:23.971Z,2.08
2022-08-21T18:12:50.859Z,2.60
2022-08-21T18:15:20.195Z,2.10
2022-08-21T18:17:49.898Z,2.30
2022-08-21T18:20:19.637Z,2.40
2022-08-21T18:22:46.693Z,2.20
2022-08-21T18:25:13.690Z,2.28
2022-08-21T18:27:44.037Z,2.47
2022-08-21T18:30:11.317Z,2.20
2022-08-21T18:32:37.956Z,2.20
2022-08-21T18:35:05.705Z,2.30
2022-08-21T18:37:32.325Z,2.22
2022-08-21T18:39:59.106Z,2.25
2022-08-21T18:42:28.529Z,2.10
2022-08-21T18:45:00.848Z,2.25
2022-08-21T18:47:33.649Z,2.42
2022-08-21T18:50:00.715Z,2.08
2022-08-21T18:52:28.370Z,2.10
2022-08-21T18:54:55.525Z,2.30
2022-08-21T18:57:24.272Z,2.40
2022-08-21T18:59:50.881Z,2.53
2022-08-21T19:02:17.873Z,1.92
2022-08-21T19:04:45.175Z,2.47
2022-08-21T19:07:13.522Z,2.30
2022-08-21T19:09:41.541Z,2.50
2022-08-21T19:12:12.693Z,2.53
2022-08-21T19:14:41.142Z,2.60
2022-08-21T19:17:08.648Z,2.00
2022-08-21T19:19:36.613Z,2.40
2022-08-21T19:22:06.269Z,2.60
2022-08-21T19:24:39.188Z,2.80
2022-08-21T19:27:06.318Z,2.65
2022-08-21T19:29:35.026Z,2.17
2022-08-21T19:32:21.243Z,2.45
2022-08-21T19:34:49.763Z,2.50
2022-08-21T19:37:19.548Z,2.00
2022-08-21T19:39:47.085Z,2.10
2022-08-21T19:42:17.815Z,2.60
2022-08-21T19:44:45.246Z,1.95
2022-08-21T19:47:18.859Z,2.45
2022-08-21T19:49:50.716Z,2.50
2022-08-21T19:52:17.887Z,2.60
2022-08-21T19:54:45.031Z,2.50
2022-08-21T19:57:12.003Z,2.35
2022-08-21T19:59:40.641Z,2.47
2022-08-21T20:02:09.294Z,2.80
2022-08-21T20:04:36.870Z,2.30
2022-08-21T20:07:04.518Z,2.28
2022-08-21T20:09:36.818Z,2.13
2022-08-21T20:12:10.270Z,2.35
2022-08-21T20:14:44.963Z,2.28
2022-08-21T20:17:13.852Z,2.10
2022-08-21T20:19:42.228Z,2.78
2022-08-21T20:22:09.783Z,2.47
2022-08-21T20:24:36.568Z,2.50
2022-08-21T20:27:06.098Z,2.22
2022-08-21T20:29:36.094Z,2.05
2022-08-21T20:32:07.671Z,2.85
2022-08-21T20:34:34.628Z,2.25
2022-08-21T20:37:01.975Z,2.50
2022-08-21T20:39:32.096Z,3.03
2022-08-21T20:41:58.824Z,3.08
2022-08-21T20:44:31.319Z,2.67
2022-08-21T20:46:58.982Z,2.30
2022-08-21T20:49:34.867Z,2.50
2022-08-21T20:52:05.414Z,2.40
2022-08-21T20:54:40.379Z,2.47
2022-08-21T20:57:14.621Z,2.35
2022-08-21T20:59:49.953Z,2.47
2022-08-21T21:02:16.496Z,2.30
2022-08-21T21:04:52.563Z,2.45
2022-08-21T21:07:27.772Z,2.40
2022-08-21T21:09:57.073Z,2.30
2022-08-21T21:12:34.113Z,2.47
2022-08-21T21:15:09.277Z,2.42
2022-08-21T21:17:44.356Z,2.33
2022-08-21T21:20:34.468Z,2.30
2022-08-21T21:23:25.328Z,2.85
2022-08-21T21:26:09.258Z,2.28
2022-08-21T21:29:18.348Z,2.30
2022-08-21T21:31:46.460Z,2.33
2022-08-21T21:34:17.097Z,2.30
2022-08-21T21:36:56.316Z,2.47
2022-08-21T21:40:10.930Z,2.33
2022-08-21T21:42:54.104Z,1.95
2022-08-21T21:45:31.932Z,2.47
2022-08-21T21:48:28.892Z,2.03
2022-08-21T21:51:04.115Z,2.03
2022-08-21T21:54:11.310Z,2.40
2022-08-21T21:56:43.910Z,2.40
2022-08-21T21:59:33.415Z,2.33
2022-08-21T22:02:10.107Z,2.20
2022-08-21T22:05:10.960Z,2.40
2022-08-21T22:07:43.366Z,2.42
2022-08-21T22:10:30.200Z,2.47
2022-08-21T22:13:25.304Z,2.80
2022-08-21T22:15:54.381Z,2.67
2022-08-21T22:18:25.609Z,2.30
2022-08-21T22:21:09.867Z,3.10
2022-08-21T22:23:42.800Z,2.72
2022-08-21T22:26:14.531Z,2.70
2022-08-21T22:28:44.453Z,2.78
2022-08-21T22:33:41.749Z,2.63
2022-08-21T22:36:19.931Z,2.60
2022-08-21T22:38:47.170Z,2.70
2022-08-21T22:41:18.994Z,2.53
2022-08-21T22:44:08.107Z,2.30
2022-08-21T22:46:59.647Z,2.30
2022-08-21T22:49:33.912Z,2.65
2022-08-21T22:52:28.746Z,2.03
2022-08-21T22:55:04.141Z,2.42
2022-08-21T22:57:34.474Z,2.42
2022-08-21T23:00:12.951Z,2.40
2022-08-21T23:02:48.966Z,2.47
2022-08-21T23:05:30.531Z,2.97
2022-08-21T23:08:33.512Z,2.58
2022-08-21T23:11:11.277Z,2.83
2022-08-21T23:13:42.873Z,2.47
2022-08-21T23:16:15.603Z,2.63
2022-08-21T23:19:07.223Z,2.55
2022-08-21T23:21:42.479Z,2.67
2022-08-21T23:24:38.488Z,2.60
2022-08-21T23:27:22.366Z,2.22
2022-08-21T23:30:21.085Z,2.67
2022-08-21T23:36:17.479Z,2.28
2022-08-21T23:39:06.903Z,2.40
2022-08-21T23:41:51.331Z,2.30
2022-08-21T23:44:36.741Z,2.95
2022-08-21T23:47:28.183Z,2.60
2022-08-21T23:50:13.946Z,2.17
2022-08-21T23:53:09.258Z,2.28
2022-08-21T23:56:08.060Z,2.42
2022-08-21T23:58:37.817Z,2.30
